sensor_id;sensor_type;location;lat;lon;timestamp;P1;durP1;ratioP1;P2;durP2;ratioP2
49514;SDS011;35415;47.870;16.058;2023-08-30T00:01:39;6.63;;;1.00;;
49514;SDS011;35415;47.870;16.058;2023-08-30T00:04:11;0.30;;;0.10;;
49514;SDS011;35415;47.870;16.058;2023-08-30T00:06:38;0.20;;;0.20;;
49514;SDS011;35415;47.870;16.058;2023-08-30T00:09:09;0.10;;;0.10;;
49514;SDS011;35415;47.870;16.058;2023-08-30T00:11:38;0.15;;;0.15;;
49514;SDS011;35415;47.870;16.058;2023-08-30T00:14:09;0.10;;;0.10;;
49514;SDS011;35415;47.870;16.058;2023-08-30T00:16:36;0.10;;;0.10;;
49514;SDS011;35415;47.870;16.058;2023-08-30T00:19:04;0.10;;;0.10;;
49514;SDS011;35415;47.870;16.058;2023-08-30T00:21:33;0.30;;;0.10;;
49514;SDS011;35415;47.870;16.058;2023-08-30T00:24:00;0.10;;;0.10;;
49514;SDS011;35415;47.870;16.058;2023-08-30T00:26:28;0.10;;;0.10;;
49514;SDS011;35415;47.870;16.058;2023-08-30T00:28:55;0.10;;;0.10;;
49514;SDS011;35415;47.870;16.058;2023-08-30T00:31:22;0.10;;;0.10;;
49514;SDS011;35415;47.870;16.058;2023-08-30T00:33:49;0.20;;;0.10;;
49514;SDS011;35415;47.870;16.058;2023-08-30T00:36:16;0.32;;;0.15;;
49514;SDS011;35415;47.870;16.058;2023-08-30T00:38:46;0.13;;;0.13;;
49514;SDS011;35415;47.870;16.058;2023-08-30T00:41:13;0.10;;;0.10;;
49514;SDS011;35415;47.870;16.058;2023-08-30T00:43:40;0.08;;;0.08;;
49514;SDS011;35415;47.870;16.058;2023-08-30T00:46:07;0.10;;;0.10;;
49514;SDS011;35415;47.870;16.058;2023-08-30T00:48:34;0.10;;;0.10;;
49514;SDS011;35415;47.870;16.058;2023-08-30T00:51:01;0.45;;;0.40;;
49514;SDS011;35415;47.870;16.058;2023-08-30T00:53:28;0.10;;;0.10;;
49514;SDS011;35415;47.870;16.058;2023-08-30T00:55:57;0.00;;;0.00;;
49514;SDS011;35415;47.870;16.058;2023-08-30T00:58:25;0.95;;;0.20;;
49514;SDS011;35415;47.870;16.058;2023-08-30T01:00:53;0.38;;;0.10;;
49514;SDS011;35415;47.870;16.058;2023-08-30T01:03:20;0.20;;;0.20;;
49514;SDS011;35415;47.870;16.058;2023-08-30T01:05:48;0.15;;;0.15;;
49514;SDS011;35415;47.870;16.058;2023-08-30T01:08:15;0.10;;;0.10;;
49514;SDS011;35415;47.870;16.058;2023-08-30T01:10:45;0.10;;;0.10;;
49514;SDS011;35415;47.870;16.058;2023-08-30T01:13:20;0.05;;;0.05;;
49514;SDS011;35415;47.870;16.058;2023-08-30T01:15:48;0.20;;;0.17;;
49514;SDS011;35415;47.870;16.058;2023-08-30T01:18:18;0.52;;;0.10;;
49514;SDS011;35415;47.870;16.058;2023-08-30T01:20:46;2.08;;;0.10;;
49514;SDS011;35415;47.870;16.058;2023-08-30T01:23:17;0.08;;;0.08;;
49514;SDS011;35415;47.870;16.058;2023-08-30T01:25:53;0.00;;;0.00;;
49514;SDS011;35415;47.870;16.058;2023-08-30T01:28:26;0.10;;;0.10;;
49514;SDS011;35415;47.870;16.058;2023-08-30T01:30:57;0.10;;;0.10;;
49514;SDS011;35415;47.870;16.058;2023-08-30T01:33:25;0.05;;;0.05;;
49514;SDS011;35415;47.870;16.058;2023-08-30T01:35:54;0.65;;;0.20;;
49514;SDS011;35415;47.870;16.058;2023-08-30T01:38:23;0.30;;;0.10;;
49514;SDS011;35415;47.870;16.058;2023-08-30T01:40:53;1.38;;;0.15;;
49514;SDS011;35415;47.870;16.058;2023-08-30T01:43:24;0.10;;;0.10;;
49514;SDS011;35415;47.870;16.058;2023-08-30T01:45:53;0.30;;;0.10;;
49514;SDS011;35415;47.870;16.058;2023-08-30T01:48:22;0.10;;;0.10;;
49514;SDS011;35415;47.870;16.058;2023-08-30T01:50:50;0.10;;;0.10;;
49514;SDS011;35415;47.870;16.058;2023-08-30T01:53:20;0.10;;;0.10;;
49514;SDS011;35415;47.870;16.058;2023-08-30T01:55:48;0.10;;;0.10;;
49514;SDS011;35415;47.870;16.058;2023-08-30T01:58:15;0.35;;;0.17;;
49514;SDS011;35415;47.870;16.058;2023-08-30T02:00:44;0.10;;;0.10;;
49514;SDS011;35415;47.870;16.058;2023-08-30T02:03:11;0.30;;;0.10;;
49514;SDS011;35415;47.870;16.058;2023-08-30T02:05:48;0.10;;;0.10;;
49514;SDS011;35415;47.870;16.058;2023-08-30T02:08:32;0.38;;;0.13;;
49514;SDS011;35415;47.870;16.058;2023-08-30T02:11:04;0.38;;;0.13;;
49514;SDS011;35415;47.870;16.058;2023-08-30T02:13:38;0.00;;;0.00;;
49514;SDS011;35415;47.870;16.058;2023-08-30T02:16:09;0.10;;;0.10;;
49514;SDS011;35415;47.870;16.058;2023-08-30T02:18:38;0.10;;;0.10;;
49514;SDS011;35415;47.870;16.058;2023-08-30T02:21:06;0.17;;;0.17;;
49514;SDS011;35415;47.870;16.058;2023-08-30T02:23:33;0.00;;;0.00;;
49514;SDS011;35415;47.870;16.058;2023-08-30T02:26:01;0.47;;;0.20;;
49514;SDS011;35415;47.870;16.058;2023-08-30T02:28:29;0.00;;;0.00;;
49514;SDS011;35415;47.870;16.058;2023-08-30T02:30:56;0.10;;;0.10;;
49514;SDS011;35415;47.870;16.058;2023-08-30T02:33:25;0.10;;;0.10;;
49514;SDS011;35415;47.870;16.058;2023-08-30T02:35:52;0.10;;;0.10;;
49514;SDS011;35415;47.870;16.058;2023-08-30T02:38:20;0.10;;;0.10;;
49514;SDS011;35415;47.870;16.058;2023-08-30T02:40:47;0.10;;;0.10;;
49514;SDS011;35415;47.870;16.058;2023-08-30T02:43:14;0.28;;;0.20;;
49514;SDS011;35415;47.870;16.058;2023-08-30T02:45:41;0.75;;;0.10;;
49514;SDS011;35415;47.870;16.058;2023-08-30T02:48:08;0.10;;;0.10;;
49514;SDS011;35415;47.870;16.058;2023-08-30T02:50:37;0.10;;;0.10;;
49514;SDS011;35415;47.870;16.058;2023-08-30T02:53:04;0.10;;;0.10;;
49514;SDS011;35415;47.870;16.058;2023-08-30T02:55:33;0.20;;;0.20;;
49514;SDS011;35415;47.870;16.058;2023-08-30T02:58:00;0.30;;;0.20;;
49514;SDS011;35415;47.870;16.058;2023-08-30T03:00:28;0.20;;;0.20;;
49514;SDS011;35415;47.870;16.058;2023-08-30T03:02:55;0.03;;;0.03;;
49514;SDS011;35415;47.870;16.058;2023-08-30T03:05:22;0.25;;;0.20;;
49514;SDS011;35415;47.870;16.058;2023-08-30T03:07:54;0.35;;;0.20;;
49514;SDS011;35415;47.870;16.058;2023-08-30T03:10:21;0.10;;;0.10;;
49514;SDS011;35415;47.870;16.058;2023-08-30T03:12:48;0.20;;;0.10;;
49514;SDS011;35415;47.870;16.058;2023-08-30T03:15:15;0.17;;;0.17;;
49514;SDS011;35415;47.870;16.058;2023-08-30T03:17:42;0.10;;;0.10;;
49514;SDS011;35415;47.870;16.058;2023-08-30T03:20:10;0.20;;;0.20;;
49514;SDS011;35415;47.870;16.058;2023-08-30T03:25:11;0.10;;;0.10;;
49514;SDS011;35415;47.870;16.058;2023-08-30T03:27:38;0.10;;;0.10;;
49514;SDS011;35415;47.870;16.058;2023-08-30T03:30:06;4.68;;;1.17;;
49514;SDS011;35415;47.870;16.058;2023-08-30T03:32:34;0.10;;;0.10;;
49514;SDS011;35415;47.870;16.058;2023-08-30T03:35:02;0.10;;;0.10;;
49514;SDS011;35415;47.870;16.058;2023-08-30T03:37:30;0.10;;;0.10;;
49514;SDS011;35415;47.870;16.058;2023-08-30T03:39:57;0.10;;;0.10;;
49514;SDS011;35415;47.870;16.058;2023-08-30T03:42:26;0.20;;;0.20;;
49514;SDS011;35415;47.870;16.058;2023-08-30T03:44:53;0.10;;;0.10;;
49514;SDS011;35415;47.870;16.058;2023-08-30T03:47:20;0.08;;;0.08;;
49514;SDS011;35415;47.870;16.058;2023-08-30T03:49:47;0.00;;;0.00;;
49514;SDS011;35415;47.870;16.058;2023-08-30T03:52:15;0.10;;;0.10;;
49514;SDS011;35415;47.870;16.058;2023-08-30T03:54:42;0.10;;;0.10;;
49514;SDS011;35415;47.870;16.058;2023-08-30T03:57:09;0.10;;;0.10;;
49514;SDS011;35415;47.870;16.058;2023-08-30T03:59:37;0.20;;;0.20;;
49514;SDS011;35415;47.870;16.058;2023-08-30T04:02:07;0.30;;;0.20;;
49514;SDS011;35415;47.870;16.058;2023-08-30T04:04:34;0.00;;;0.00;;
49514;SDS011;35415;47.870;16.058;2023-08-30T04:07:01;0.10;;;0.10;;
49514;SDS011;35415;47.870;16.058;2023-08-30T04:09:29;0.20;;;0.20;;
49514;SDS011;35415;47.870;16.058;2023-08-30T04:11:56;0.10;;;0.10;;
49514;SDS011;35415;47.870;16.058;2023-08-30T04:14:23;0.10;;;0.10;;
49514;SDS011;35415;47.870;16.058;2023-08-30T04:16:51;0.55;;;0.20;;
49514;SDS011;35415;47.870;16.058;2023-08-30T04:19:24;3.92;;;0.40;;
49514;SDS011;35415;47.870;16.058;2023-08-30T04:21:51;0.17;;;0.10;;
49514;SDS011;35415;47.870;16.058;2023-08-30T04:24:24;0.00;;;0.00;;
49514;SDS011;35415;47.870;16.058;2023-08-30T04:26:56;0.10;;;0.10;;
49514;SDS011;35415;47.870;16.058;2023-08-30T04:29:23;0.20;;;0.20;;
49514;SDS011;35415;47.870;16.058;2023-08-30T04:31:51;0.45;;;0.25;;
49514;SDS011;35415;47.870;16.058;2023-08-30T04:36:50;0.20;;;0.10;;
49514;SDS011;35415;47.870;16.058;2023-08-30T04:39:17;0.17;;;0.17;;
49514;SDS011;35415;47.870;16.058;2023-08-30T04:41:44;0.15;;;0.15;;
49514;SDS011;35415;47.870;16.058;2023-08-30T04:44:11;0.05;;;0.05;;
49514;SDS011;35415;47.870;16.058;2023-08-30T04:46:39;0.65;;;0.20;;
49514;SDS011;35415;47.870;16.058;2023-08-30T04:49:07;0.52;;;0.30;;
49514;SDS011;35415;47.870;16.058;2023-08-30T04:51:34;0.32;;;0.20;;
49514;SDS011;35415;47.870;16.058;2023-08-30T04:54:02;0.20;;;0.20;;
49514;SDS011;35415;47.870;16.058;2023-08-30T04:56:29;0.20;;;0.10;;
49514;SDS011;35415;47.870;16.058;2023-08-30T04:58:56;0.95;;;0.15;;
49514;SDS011;35415;47.870;16.058;2023-08-30T05:01:23;0.47;;;0.20;;
49514;SDS011;35415;47.870;16.058;2023-08-30T05:03:51;0.30;;;0.30;;
49514;SDS011;35415;47.870;16.058;2023-08-30T05:06:19;0.30;;;0.30;;
49514;SDS011;35415;47.870;16.058;2023-08-30T05:08:46;0.30;;;0.13;;
49514;SDS011;35415;47.870;16.058;2023-08-30T05:11:13;0.10;;;0.10;;
49514;SDS011;35415;47.870;16.058;2023-08-30T05:13:41;0.20;;;0.20;;
49514;SDS011;35415;47.870;16.058;2023-08-30T05:16:08;0.10;;;0.10;;
49514;SDS011;35415;47.870;16.058;2023-08-30T05:18:35;0.20;;;0.20;;
49514;SDS011;35415;47.870;16.058;2023-08-30T05:21:02;0.20;;;0.20;;
49514;SDS011;35415;47.870;16.058;2023-08-30T05:23:32;0.15;;;0.15;;
49514;SDS011;35415;47.870;16.058;2023-08-30T05:25:59;0.30;;;0.20;;
49514;SDS011;35415;47.870;16.058;2023-08-30T05:28:26;0.63;;;0.32;;
49514;SDS011;35415;47.870;16.058;2023-08-30T05:30:53;0.15;;;0.15;;
49514;SDS011;35415;47.870;16.058;2023-08-30T05:33:21;1.55;;;0.30;;
49514;SDS011;35415;47.870;16.058;2023-08-30T05:35:48;0.30;;;0.22;;
49514;SDS011;35415;47.870;16.058;2023-08-30T05:38:15;1.65;;;0.30;;
49514;SDS011;35415;47.870;16.058;2023-08-30T05:40:43;1.55;;;0.35;;
49514;SDS011;35415;47.870;16.058;2023-08-30T05:43:10;0.70;;;0.40;;
49514;SDS011;35415;47.870;16.058;2023-08-30T05:45:37;0.25;;;0.25;;
49514;SDS011;35415;47.870;16.058;2023-08-30T05:48:05;0.30;;;0.30;;
49514;SDS011;35415;47.870;16.058;2023-08-30T05:50:32;0.22;;;0.22;;
49514;SDS011;35415;47.870;16.058;2023-08-30T05:52:59;1.58;;;0.40;;
49514;SDS011;35415;47.870;16.058;2023-08-30T05:55:26;0.30;;;0.30;;
49514;SDS011;35415;47.870;16.058;2023-08-30T05:57:55;0.68;;;0.50;;
49514;SDS011;35415;47.870;16.058;2023-08-30T06:00:22;0.57;;;0.40;;
49514;SDS011;35415;47.870;16.058;2023-08-30T06:02:51;0.52;;;0.45;;
49514;SDS011;35415;47.870;16.058;2023-08-30T06:05:18;2.30;;;0.30;;
49514;SDS011;35415;47.870;16.058;2023-08-30T06:07:45;0.95;;;0.40;;
49514;SDS011;35415;47.870;16.058;2023-08-30T06:10:12;0.20;;;0.20;;
49514;SDS011;35415;47.870;16.058;2023-08-30T06:12:39;1.40;;;1.00;;
49514;SDS011;35415;47.870;16.058;2023-08-30T06:15:08;1.35;;;0.50;;
49514;SDS011;35415;47.870;16.058;2023-08-30T06:17:36;0.47;;;0.47;;
49514;SDS011;35415;47.870;16.058;2023-08-30T06:20:03;0.40;;;0.40;;
49514;SDS011;35415;47.870;16.058;2023-08-30T06:22:31;0.50;;;0.50;;
49514;SDS011;35415;47.870;16.058;2023-08-30T06:24:58;0.40;;;0.40;;
49514;SDS011;35415;47.870;16.058;2023-08-30T06:27:25;0.50;;;0.50;;
49514;SDS011;35415;47.870;16.058;2023-08-30T06:29:52;0.47;;;0.47;;
49514;SDS011;35415;47.870;16.058;2023-08-30T06:32:21;0.50;;;0.50;;
49514;SDS011;35415;47.870;16.058;2023-08-30T06:34:48;0.60;;;0.60;;
49514;SDS011;35415;47.870;16.058;2023-08-30T06:37:15;0.68;;;0.60;;
49514;SDS011;35415;47.870;16.058;2023-08-30T06:39:42;0.50;;;0.50;;
49514;SDS011;35415;47.870;16.058;2023-08-30T06:42:09;0.40;;;0.40;;
49514;SDS011;35415;47.870;16.058;2023-08-30T06:44:37;0.70;;;0.70;;
49514;SDS011;35415;47.870;16.058;2023-08-30T06:47:05;1.30;;;0.70;;
49514;SDS011;35415;47.870;16.058;2023-08-30T06:49:35;0.60;;;0.60;;
49514;SDS011;35415;47.870;16.058;2023-08-30T06:52:02;0.70;;;0.70;;
49514;SDS011;35415;47.870;16.058;2023-08-30T06:54:33;0.70;;;0.70;;
49514;SDS011;35415;47.870;16.058;2023-08-30T06:57:01;0.70;;;0.70;;
49514;SDS011;35415;47.870;16.058;2023-08-30T06:59:33;0.63;;;0.63;;
49514;SDS011;35415;47.870;16.058;2023-08-30T07:02:01;0.80;;;0.80;;
49514;SDS011;35415;47.870;16.058;2023-08-30T07:04:28;1.20;;;0.80;;
49514;SDS011;35415;47.870;16.058;2023-08-30T07:06:58;0.88;;;0.80;;
49514;SDS011;35415;47.870;16.058;2023-08-30T07:09:25;0.80;;;0.80;;
49514;SDS011;35415;47.870;16.058;2023-08-30T07:11:56;1.20;;;1.10;;
49514;SDS011;35415;47.870;16.058;2023-08-30T07:14:23;2.03;;;1.63;;
49514;SDS011;35415;47.870;16.058;2023-08-30T07:16:51;3.10;;;1.25;;
49514;SDS011;35415;47.870;16.058;2023-08-30T07:19:23;1.75;;;1.38;;
49514;SDS011;35415;47.870;16.058;2023-08-30T07:21:51;2.03;;;1.10;;
49514;SDS011;35415;47.870;16.058;2023-08-30T07:24:23;1.15;;;1.05;;
49514;SDS011;35415;47.870;16.058;2023-08-30T07:26:50;1.20;;;1.00;;
49514;SDS011;35415;47.870;16.058;2023-08-30T07:29:21;1.35;;;1.05;;
49514;SDS011;35415;47.870;16.058;2023-08-30T07:31:48;0.77;;;0.77;;
49514;SDS011;35415;47.870;16.058;2023-08-30T07:34:21;1.17;;;1.08;;
49514;SDS011;35415;47.870;16.058;2023-08-30T07:36:48;1.20;;;1.10;;
49514;SDS011;35415;47.870;16.058;2023-08-30T07:39:15;0.85;;;0.85;;
49514;SDS011;35415;47.870;16.058;2023-08-30T07:41:45;0.60;;;0.60;;
49514;SDS011;35415;47.870;16.058;2023-08-30T07:44:12;0.88;;;0.82;;
49514;SDS011;35415;47.870;16.058;2023-08-30T07:46:40;0.82;;;0.80;;
49514;SDS011;35415;47.870;16.058;2023-08-30T07:49:07;0.63;;;0.63;;
49514;SDS011;35415;47.870;16.058;2023-08-30T07:51:34;1.42;;;0.60;;
49514;SDS011;35415;47.870;16.058;2023-08-30T07:54:02;0.60;;;0.60;;
49514;SDS011;35415;47.870;16.058;2023-08-30T07:56:29;0.65;;;0.65;;
49514;SDS011;35415;47.870;16.058;2023-08-30T07:59:00;0.52;;;0.52;;
49514;SDS011;35415;47.870;16.058;2023-08-30T08:01:27;0.50;;;0.50;;
49514;SDS011;35415;47.870;16.058;2023-08-30T08:03:54;1.48;;;0.70;;
49514;SDS011;35415;47.870;16.058;2023-08-30T08:06:21;0.50;;;0.50;;
49514;SDS011;35415;47.870;16.058;2023-08-30T08:08:48;0.47;;;0.38;;
49514;SDS011;35415;47.870;16.058;2023-08-30T08:11:15;0.43;;;0.43;;
49514;SDS011;35415;47.870;16.058;2023-08-30T08:13:43;0.50;;;0.50;;
49514;SDS011;35415;47.870;16.058;2023-08-30T08:16:12;0.55;;;0.47;;
49514;SDS011;35415;47.870;16.058;2023-08-30T08:18:40;0.40;;;0.40;;
49514;SDS011;35415;47.870;16.058;2023-08-30T08:21:07;0.30;;;0.30;;
49514;SDS011;35415;47.870;16.058;2023-08-30T08:23:34;1.77;;;0.43;;
49514;SDS011;35415;47.870;16.058;2023-08-30T08:26:01;0.70;;;0.35;;
49514;SDS011;35415;47.870;16.058;2023-08-30T08:28:29;0.30;;;0.30;;
49514;SDS011;35415;47.870;16.058;2023-08-30T08:30:56;0.40;;;0.40;;
49514;SDS011;35415;47.870;16.058;2023-08-30T08:33:25;0.38;;;0.38;;
49514;SDS011;35415;47.870;16.058;2023-08-30T08:35:55;0.38;;;0.38;;
49514;SDS011;35415;47.870;16.058;2023-08-30T08:38:22;0.40;;;0.40;;
49514;SDS011;35415;47.870;16.058;2023-08-30T08:40:50;0.40;;;0.40;;
49514;SDS011;35415;47.870;16.058;2023-08-30T08:43:20;0.40;;;0.40;;
49514;SDS011;35415;47.870;16.058;2023-08-30T08:45:48;0.60;;;0.40;;
49514;SDS011;35415;47.870;16.058;2023-08-30T08:48:16;0.40;;;0.40;;
49514;SDS011;35415;47.870;16.058;2023-08-30T08:50:45;0.30;;;0.30;;
49514;SDS011;35415;47.870;16.058;2023-08-30T08:53:12;0.28;;;0.28;;
49514;SDS011;35415;47.870;16.058;2023-08-30T08:55:40;0.30;;;0.30;;
49514;SDS011;35415;47.870;16.058;2023-08-30T08:58:11;0.30;;;0.30;;
49514;SDS011;35415;47.870;16.058;2023-08-30T09:00:41;0.35;;;0.30;;
49514;SDS011;35415;47.870;16.058;2023-08-30T09:03:10;0.43;;;0.25;;
49514;SDS011;35415;47.870;16.058;2023-08-30T09:05:37;0.30;;;0.30;;
49514;SDS011;35415;47.870;16.058;2023-08-30T09:08:07;1.25;;;0.30;;
49514;SDS011;35415;47.870;16.058;2023-08-30T09:10:36;0.30;;;0.30;;
49514;SDS011;35415;47.870;16.058;2023-08-30T09:13:05;0.30;;;0.30;;
49514;SDS011;35415;47.870;16.058;2023-08-30T09:15:32;0.40;;;0.40;;
49514;SDS011;35415;47.870;16.058;2023-08-30T09:17:59;0.32;;;0.30;;
49514;SDS011;35415;47.870;16.058;2023-08-30T09:20:29;2.70;;;0.40;;
49514;SDS011;35415;47.870;16.058;2023-08-30T09:25:44;1.92;;;0.32;;
49514;SDS011;35415;47.870;16.058;2023-08-30T09:28:12;0.32;;;0.32;;
49514;SDS011;35415;47.870;16.058;2023-08-30T09:30:41;0.45;;;0.43;;
49514;SDS011;35415;47.870;16.058;2023-08-30T09:33:08;0.30;;;0.30;;
49514;SDS011;35415;47.870;16.058;2023-08-30T09:35:44;0.30;;;0.30;;
49514;SDS011;35415;47.870;16.058;2023-08-30T09:38:20;0.25;;;0.25;;
49514;SDS011;35415;47.870;16.058;2023-08-30T09:40:50;0.20;;;0.20;;
49514;SDS011;35415;47.870;16.058;2023-08-30T09:43:18;0.30;;;0.30;;
49514;SDS011;35415;47.870;16.058;2023-08-30T09:45:49;0.30;;;0.30;;
49514;SDS011;35415;47.870;16.058;2023-08-30T09:48:20;4.43;;;2.55;;
49514;SDS011;35415;47.870;16.058;2023-08-30T09:50:52;0.57;;;0.45;;
49514;SDS011;35415;47.870;16.058;2023-08-30T09:53:21;0.30;;;0.30;;
49514;SDS011;35415;47.870;16.058;2023-08-30T09:55:54;0.30;;;0.30;;
49514;SDS011;35415;47.870;16.058;2023-08-30T09:58:23;0.50;;;0.40;;
49514;SDS011;35415;47.870;16.058;2023-08-30T10:00:53;0.43;;;0.40;;
49514;SDS011;35415;47.870;16.058;2023-08-30T10:03:20;0.35;;;0.35;;
49514;SDS011;35415;47.870;16.058;2023-08-30T10:05:50;0.88;;;0.30;;
49514;SDS011;35415;47.870;16.058;2023-08-30T10:08:21;0.50;;;0.50;;
49514;SDS011;35415;47.870;16.058;2023-08-30T10:10:56;0.40;;;0.40;;
49514;SDS011;35415;47.870;16.058;2023-08-30T10:13:25;0.43;;;0.43;;
49514;SDS011;35415;47.870;16.058;2023-08-30T10:18:29;0.57;;;0.50;;
49514;SDS011;35415;47.870;16.058;2023-08-30T10:20:58;0.60;;;0.60;;
49514;SDS011;35415;47.870;16.058;2023-08-30T10:23:34;0.40;;;0.40;;
49514;SDS011;35415;47.870;16.058;2023-08-30T10:26:06;0.40;;;0.40;;
49514;SDS011;35415;47.870;16.058;2023-08-30T10:28:36;0.70;;;0.47;;
49514;SDS011;35415;47.870;16.058;2023-08-30T10:31:05;1.02;;;0.60;;
49514;SDS011;35415;47.870;16.058;2023-08-30T10:33:44;0.30;;;0.30;;
49514;SDS011;35415;47.870;16.058;2023-08-30T10:36:19;1.15;;;0.47;;
49514;SDS011;35415;47.870;16.058;2023-08-30T10:38:48;1.00;;;0.43;;
49514;SDS011;35415;47.870;16.058;2023-08-30T10:41:20;0.50;;;0.50;;
49514;SDS011;35415;47.870;16.058;2023-08-30T10:43:50;0.40;;;0.40;;
49514;SDS011;35415;47.870;16.058;2023-08-30T10:46:28;0.30;;;0.30;;
49514;SDS011;35415;47.870;16.058;2023-08-30T10:49:08;0.40;;;0.40;;
49514;SDS011;35415;47.870;16.058;2023-08-30T10:51:37;0.40;;;0.40;;
49514;SDS011;35415;47.870;16.058;2023-08-30T10:54:11;0.50;;;0.50;;
49514;SDS011;35415;47.870;16.058;2023-08-30T10:56:47;0.40;;;0.40;;
49514;SDS011;35415;47.870;16.058;2023-08-30T10:59:18;0.40;;;0.40;;
49514;SDS011;35415;47.870;16.058;2023-08-30T11:01:46;0.43;;;0.43;;
49514;SDS011;35415;47.870;16.058;2023-08-30T11:04:14;0.40;;;0.40;;
49514;SDS011;35415;47.870;16.058;2023-08-30T11:06:43;0.50;;;0.50;;
49514;SDS011;35415;47.870;16.058;2023-08-30T11:09:15;0.40;;;0.40;;
49514;SDS011;35415;47.870;16.058;2023-08-30T11:11:44;0.40;;;0.40;;
49514;SDS011;35415;47.870;16.058;2023-08-30T11:14:15;0.50;;;0.50;;
49514;SDS011;35415;47.870;16.058;2023-08-30T11:16:43;0.50;;;0.50;;
49514;SDS011;35415;47.870;16.058;2023-08-30T11:19:12;0.50;;;0.50;;
49514;SDS011;35415;47.870;16.058;2023-08-30T11:21:42;0.43;;;0.43;;
49514;SDS011;35415;47.870;16.058;2023-08-30T11:24:11;0.50;;;0.50;;
49514;SDS011;35415;47.870;16.058;2023-08-30T11:26:38;1.42;;;0.60;;
49514;SDS011;35415;47.870;16.058;2023-08-30T11:29:08;0.50;;;0.50;;
49514;SDS011;35415;47.870;16.058;2023-08-30T11:31:36;1.20;;;0.50;;
49514;SDS011;35415;47.870;16.058;2023-08-30T11:34:04;0.60;;;0.60;;
49514;SDS011;35415;47.870;16.058;2023-08-30T11:36:32;2.00;;;0.50;;
49514;SDS011;35415;47.870;16.058;2023-08-30T11:39:04;0.70;;;0.70;;
49514;SDS011;35415;47.870;16.058;2023-08-30T11:41:32;0.50;;;0.50;;
49514;SDS011;35415;47.870;16.058;2023-08-30T11:44:08;0.65;;;0.60;;
49514;SDS011;35415;47.870;16.058;2023-08-30T11:46:37;0.60;;;0.60;;
49514;SDS011;35415;47.870;16.058;2023-08-30T11:49:04;0.45;;;0.45;;
49514;SDS011;35415;47.870;16.058;2023-08-30T11:51:32;1.08;;;0.60;;
49514;SDS011;35415;47.870;16.058;2023-08-30T11:54:00;0.50;;;0.50;;
49514;SDS011;35415;47.870;16.058;2023-08-30T11:56:29;2.05;;;0.70;;
49514;SDS011;35415;47.870;16.058;2023-08-30T11:58:57;0.50;;;0.50;;
49514;SDS011;35415;47.870;16.058;2023-08-30T12:01:26;0.63;;;0.63;;
49514;SDS011;35415;47.870;16.058;2023-08-30T12:03:54;2.20;;;0.70;;
49514;SDS011;35415;47.870;16.058;2023-08-30T12:06:23;0.40;;;0.40;;
49514;SDS011;35415;47.870;16.058;2023-08-30T12:08:57;0.50;;;0.50;;
49514;SDS011;35415;47.870;16.058;2023-08-30T12:11:25;0.50;;;0.50;;
49514;SDS011;35415;47.870;16.058;2023-08-30T12:14:01;1.33;;;0.65;;
49514;SDS011;35415;47.870;16.058;2023-08-30T12:16:32;0.60;;;0.60;;
49514;SDS011;35415;47.870;16.058;2023-08-30T12:19:09;0.60;;;0.60;;
49514;SDS011;35415;47.870;16.058;2023-08-30T12:21:41;0.60;;;0.60;;
49514;SDS011;35415;47.870;16.058;2023-08-30T12:24:09;0.60;;;0.60;;
49514;SDS011;35415;47.870;16.058;2023-08-30T12:26:37;0.60;;;0.60;;
49514;SDS011;35415;47.870;16.058;2023-08-30T12:29:05;0.52;;;0.52;;
49514;SDS011;35415;47.870;16.058;2023-08-30T12:31:35;0.73;;;0.73;;
49514;SDS011;35415;47.870;16.058;2023-08-30T12:34:06;0.60;;;0.60;;
49514;SDS011;35415;47.870;16.058;2023-08-30T12:36:34;2.05;;;0.60;;
49514;SDS011;35415;47.870;16.058;2023-08-30T12:39:02;0.55;;;0.55;;
49514;SDS011;35415;47.870;16.058;2023-08-30T12:41:30;0.47;;;0.47;;
49514;SDS011;35415;47.870;16.058;2023-08-30T12:43:58;0.65;;;0.65;;
49514;SDS011;35415;47.870;16.058;2023-08-30T12:46:28;1.15;;;0.70;;
49514;SDS011;35415;47.870;16.058;2023-08-30T12:48:57;0.60;;;0.60;;
49514;SDS011;35415;47.870;16.058;2023-08-30T12:51:24;0.50;;;0.50;;
49514;SDS011;35415;47.870;16.058;2023-08-30T12:53:52;0.50;;;0.50;;
49514;SDS011;35415;47.870;16.058;2023-08-30T12:56:20;0.50;;;0.50;;
49514;SDS011;35415;47.870;16.058;2023-08-30T12:58:51;1.38;;;0.50;;
49514;SDS011;35415;47.870;16.058;2023-08-30T13:01:19;0.60;;;0.60;;
49514;SDS011;35415;47.870;16.058;2023-08-30T13:03:46;0.98;;;0.70;;
49514;SDS011;35415;47.870;16.058;2023-08-30T13:06:17;0.50;;;0.50;;
49514;SDS011;35415;47.870;16.058;2023-08-30T13:08:45;0.82;;;0.50;;
49514;SDS011;35415;47.870;16.058;2023-08-30T13:11:14;0.55;;;0.52;;
49514;SDS011;35415;47.870;16.058;2023-08-30T13:13:45;0.70;;;0.60;;
49514;SDS011;35415;47.870;16.058;2023-08-30T13:16:12;0.60;;;0.60;;
49514;SDS011;35415;47.870;16.058;2023-08-30T13:18:40;2.00;;;0.60;;
49514;SDS011;35415;47.870;16.058;2023-08-30T13:21:08;0.70;;;0.70;;
49514;SDS011;35415;47.870;16.058;2023-08-30T13:23:37;2.30;;;0.80;;
49514;SDS011;35415;47.870;16.058;2023-08-30T13:26:08;2.40;;;0.68;;
49514;SDS011;35415;47.870;16.058;2023-08-30T13:28:36;0.90;;;0.70;;
49514;SDS011;35415;47.870;16.058;2023-08-30T13:31:06;0.70;;;0.70;;
49514;SDS011;35415;47.870;16.058;2023-08-30T13:33:34;1.17;;;0.85;;
49514;SDS011;35415;47.870;16.058;2023-08-30T13:36:02;0.95;;;0.70;;
49514;SDS011;35415;47.870;16.058;2023-08-30T13:38:31;0.73;;;0.73;;
49514;SDS011;35415;47.870;16.058;2023-08-30T13:41:00;0.82;;;0.80;;
49514;SDS011;35415;47.870;16.058;2023-08-30T13:43:29;0.57;;;0.57;;
49514;SDS011;35415;47.870;16.058;2023-08-30T13:45:59;2.28;;;0.60;;
49514;SDS011;35415;47.870;16.058;2023-08-30T13:48:27;2.47;;;0.65;;
49514;SDS011;35415;47.870;16.058;2023-08-30T13:50:55;0.80;;;0.80;;
49514;SDS011;35415;47.870;16.058;2023-08-30T13:53:23;0.60;;;0.60;;
49514;SDS011;35415;47.870;16.058;2023-08-30T13:55:51;0.57;;;0.57;;
49514;SDS011;35415;47.870;16.058;2023-08-30T13:58:22;3.65;;;0.70;;
49514;SDS011;35415;47.870;16.058;2023-08-30T14:00:50;1.23;;;0.60;;
49514;SDS011;35415;47.870;16.058;2023-08-30T14:03:18;3.13;;;0.77;;
49514;SDS011;35415;47.870;16.058;2023-08-30T14:05:49;4.57;;;0.97;;
49514;SDS011;35415;47.870;16.058;2023-08-30T14:08:17;1.33;;;0.70;;
49514;SDS011;35415;47.870;16.058;2023-08-30T14:10:46;0.68;;;0.60;;
49514;SDS011;35415;47.870;16.058;2023-08-30T14:13:14;3.33;;;0.90;;
49514;SDS011;35415;47.870;16.058;2023-08-30T14:15:43;1.45;;;0.60;;
49514;SDS011;35415;47.870;16.058;2023-08-30T14:18:11;1.17;;;0.60;;
49514;SDS011;35415;47.870;16.058;2023-08-30T14:20:38;1.13;;;0.70;;
49514;SDS011;35415;47.870;16.058;2023-08-30T14:23:06;1.13;;;0.47;;
49514;SDS011;35415;47.870;16.058;2023-08-30T14:25:34;0.60;;;0.60;;
49514;SDS011;35415;47.870;16.058;2023-08-30T14:28:03;2.92;;;0.85;;
49514;SDS011;35415;47.870;16.058;2023-08-30T14:30:31;1.58;;;0.80;;
49514;SDS011;35415;47.870;16.058;2023-08-30T14:33:00;2.30;;;0.60;;
49514;SDS011;35415;47.870;16.058;2023-08-30T14:35:30;0.65;;;0.65;;
49514;SDS011;35415;47.870;16.058;2023-08-30T14:37:59;2.05;;;0.80;;
49514;SDS011;35415;47.870;16.058;2023-08-30T14:40:28;1.77;;;0.60;;
49514;SDS011;35415;47.870;16.058;2023-08-30T14:43:00;0.57;;;0.57;;
49514;SDS011;35415;47.870;16.058;2023-08-30T14:45:31;0.68;;;0.50;;
49514;SDS011;35415;47.870;16.058;2023-08-30T14:48:01;2.13;;;0.52;;
49514;SDS011;35415;47.870;16.058;2023-08-30T14:50:31;0.70;;;0.70;;
49514;SDS011;35415;47.870;16.058;2023-08-30T14:53:07;1.42;;;0.63;;